Young America, Minnesota
Current Conditions -  °F | °C
As of 12:14 AM on Thursday 29 Jan 2015 (Local Time) from KGYL Reporting Station
Haze Haze  
Wind Chill: -4°   Ceiling: 600
Heat Index:   Visibility: 4mi
Dew Point:   Wind: 8mph
Humidity: 99%   Direction: 310°NW
Pressure: 29.89"   Gusts: NA
Location:  44.78°N, 93.92°W
Report Text: KGYL 290614Z AUTO 31007KT 4SM BR OVC006 00/00 A2989 RMK AO2 T00010000
Loading
Personal Weather Stations






























Interactive Weather Map New forecast layout! Learn more

10-Day Weather Forecast

Advertisements
Track Severe Weather on mobile